Time;durP1;ratioP1;P1;durP2;ratioP2;P2;SDS_P1;SDS_P2;PMS_P1;PMS_P2;Temp;Humidity;BMP_temperature;BMP_pressure;BME280_temperature;BME280_humidity;BME280_pressure;Samples;Min_cycle;Max_cycle;Signal;HPM_P1;HPM_P2
2021/03/15 00:02:07;;;;;;;0.93;0.93;;;3.30;99.90;;;;;;5026164;28;20198;-73
2021/03/15 00:04:33;;;;;;;1.93;1.20;;;3.30;99.90;;;;;;5024677;28;20236;-73
2021/03/15 00:06:59;;;;;;;1.10;1.10;;;3.20;99.90;;;;;;5034792;28;20178;-72
2021/03/15 00:09:25;;;;;;;1.10;1.10;;;3.20;99.90;;;;;;5034651;28;20586;-73
2021/03/15 00:11:52;;;;;;;1.33;1.23;;;3.20;99.90;;;;;;5034587;28;20256;-73
2021/03/15 00:14:18;;;;;;;1.30;1.20;;;3.10;99.90;;;;;;5034626;28;20708;-73
2021/03/15 00:16:45;;;;;;;1.37;1.27;;;3.10;99.90;;;;;;5035033;28;20180;-73
2021/03/15 00:19:11;;;;;;;1.30;1.20;;;3.10;99.90;;;;;;5034572;28;20298;-73
2021/03/15 00:21:36;;;;;;;1.20;1.20;;;3.10;99.90;;;;;;5034410;28;20610;-73
2021/03/15 00:24:03;;;;;;;1.33;1.23;;;3.20;99.90;;;;;;5034357;28;20265;-73
2021/03/15 00:26:32;;;;;;;1.37;1.27;;;3.20;99.90;;;;;;5019254;28;20179;-73
2021/03/15 00:29:15;;;;;;;1.73;1.63;;;3.20;99.90;;;;;;5032092;28;20198;-73
2021/03/15 00:31:40;;;;;;;1.50;1.40;;;3.20;99.90;;;;;;5034297;28;20627;-73
2021/03/15 00:34:06;;;;;;;1.60;1.50;;;3.10;99.90;;;;;;5034445;28;20633;-73
2021/03/15 00:36:32;;;;;;;1.53;1.40;;;3.10;99.90;;;;;;5034270;28;20266;-73
2021/03/15 00:38:57;;;;;;;1.53;1.43;;;3.10;99.90;;;;;;5035558;28;20762;-72
2021/03/15 00:41:23;;;;;;;1.63;1.50;;;3.10;99.90;;;;;;5034116;28;20568;-73
2021/03/15 00:43:49;;;;;;;1.23;1.20;;;3.20;99.90;;;;;;5022800;28;20203;-72
2021/03/15 00:46:15;;;;;;;1.63;1.53;;;3.10;99.90;;;;;;5018283;28;20185;-73
2021/03/15 00:48:41;;;;;;;1.73;1.63;;;3.00;99.90;;;;;;5033998;28;20179;-73
2021/03/15 00:51:06;;;;;;;2.60;1.70;;;2.90;99.90;;;;;;5033977;28;20202;-73
2021/03/15 00:53:32;;;;;;;1.80;1.70;;;2.90;99.90;;;;;;5033897;28;20567;-73
2021/03/15 00:55:58;;;;;;;1.80;1.70;;;3.00;99.90;;;;;;5031790;28;20190;-73
2021/03/15 00:58:24;;;;;;;1.60;1.50;;;3.10;99.90;;;;;;5033701;28;20211;-73
2021/03/15 01:00:50;;;;;;;1.30;1.30;;;3.10;99.90;;;;;;5033025;28;20203;-72
2021/03/15 01:03:16;;;;;;;2.03;1.57;;;3.20;99.90;;;;;;5025096;28;20328;-73
2021/03/15 01:05:48;;;;;;;1.53;1.47;;;3.20;99.90;;;;;;5033670;28;20176;-73
2021/03/15 01:08:14;;;;;;;2.10;1.60;;;3.20;99.90;;;;;;5033731;28;20664;-73
2021/03/15 01:10:41;;;;;;;2.03;1.90;;;3.20;99.90;;;;;;5033566;28;20703;-73
2021/03/15 01:13:07;;;;;;;1.60;1.50;;;3.40;99.90;;;;;;5033658;28;20178;-73
2021/03/15 01:15:34;;;;;;;1.60;1.50;;;3.20;99.90;;;;;;5033513;28;20187;-73
2021/03/15 01:18:00;;;;;;;1.50;1.40;;;3.30;99.90;;;;;;5030094;28;20576;-74
2021/03/15 01:20:26;;;;;;;1.57;1.47;;;3.30;99.90;;;;;;5022842;28;20221;-73
2021/03/15 01:22:52;;;;;;;1.40;1.30;;;3.50;99.90;;;;;;5033423;28;20202;-73
2021/03/15 01:25:26;;;;;;;1.77;1.40;;;3.50;99.90;;;;;;5033360;28;20650;-74
2021/03/15 01:27:51;;;;;;;1.70;1.50;;;3.60;99.90;;;;;;5033203;28;20702;-73
2021/03/15 01:30:18;;;;;;;2.33;1.60;;;3.60;99.90;;;;;;5033127;28;20274;-73
2021/03/15 01:32:43;;;;;;;1.53;1.43;;;3.60;99.90;;;;;;5033319;28;20179;-73
2021/03/15 01:35:09;;;;;;;2.03;1.70;;;3.70;99.90;;;;;;5018602;28;20176;-73
2021/03/15 01:37:35;;;;;;;2.00;1.80;;;3.60;99.90;;;;;;5033214;28;20648;-73
2021/03/15 01:40:01;;;;;;;2.07;1.40;;;3.50;99.90;;;;;;5032947;28;20258;-73
2021/03/15 01:42:27;;;;;;;2.00;1.80;;;3.40;99.90;;;;;;5033132;28;20248;-73
2021/03/15 01:44:53;;;;;;;1.63;1.53;;;3.50;99.90;;;;;;5033050;28;20172;-73
2021/03/15 01:47:19;;;;;;;1.70;1.60;;;3.50;99.90;;;;;;5033273;28;20194;-73
2021/03/15 01:49:45;;;;;;;1.70;1.60;;;3.50;99.90;;;;;;5032834;28;20195;-73
2021/03/15 01:52:12;;;;;;;1.30;1.20;;;3.50;99.90;;;;;;5033348;28;20198;-73
2021/03/15 01:54:38;;;;;;;4.73;1.83;;;3.50;99.90;;;;;;5032896;28;20264;-74
2021/03/15 01:57:04;;;;;;;1.40;1.30;;;3.50;99.90;;;;;;5032782;28;20593;-73
2021/03/15 01:59:30;;;;;;;1.60;1.50;;;3.50;99.90;;;;;;5032732;28;20702;-73
2021/03/15 02:01:55;;;;;;;2.00;1.80;;;3.30;99.90;;;;;;5024024;28;20222;-73
2021/03/15 02:04:23;;;;;;;2.10;1.90;;;3.40;99.90;;;;;;5031584;28;20646;-73
2021/03/15 02:06:49;;;;;;;3.10;2.20;;;3.30;99.90;;;;;;5032540;28;20183;-73
2021/03/15 02:09:15;;;;;;;2.23;1.80;;;3.20;99.90;;;;;;5032412;28;20182;-73
2021/03/15 02:12:03;;;;;;;3.17;2.20;;;3.20;99.90;;;;;;5032477;28;20697;-73
2021/03/15 02:14:54;;;;;;;3.07;2.37;;;3.20;99.90;;;;;;5032523;28;20176;-73
2021/03/15 02:17:47;;;;;;;4.03;2.40;;;3.20;99.90;;;;;;5032456;28;20174;-73
2021/03/15 02:20:21;;;;;;;3.27;2.60;;;3.20;99.90;;;;;;5032283;28;20216;-73
2021/03/15 02:23:41;;;;;;;3.13;2.73;;;3.20;99.90;;;;;;5032365;28;20549;-73
2021/03/15 02:26:25;;;;;;;2.73;2.53;;;3.20;99.90;;;;;;5010414;28;20182;-73
2021/03/15 02:29:11;;;;;;;3.17;2.97;;;3.30;99.90;;;;;;5032385;28;20249;-73
2021/03/15 02:31:58;;;;;;;3.77;2.83;;;3.20;99.90;;;;;;5032510;28;20193;-73
2021/03/15 02:35:07;;;;;;;3.60;3.30;;;3.20;99.90;;;;;;5011178;28;20208;-72
2021/03/15 02:37:42;;;;;;;4.13;3.73;;;3.30;99.90;;;;;;5015498;28;20269;-73
2021/03/15 02:40:32;;;;;;;5.83;3.83;;;3.40;99.90;;;;;;5030189;28;20202;-73
2021/03/15 02:43:01;;;;;;;5.57;4.00;;;3.30;99.90;;;;;;5031650;28;20170;-73
2021/03/15 02:45:28;;;;;;;4.83;4.10;;;3.30;99.90;;;;;;5031944;28;20182;-73
2021/03/15 02:47:55;;;;;;;4.33;4.00;;;3.30;99.90;;;;;;5032140;28;20700;-73
2021/03/15 02:50:24;;;;;;;4.27;3.93;;;3.20;99.90;;;;;;5031214;28;20213;-73
2021/03/15 02:52:51;;;;;;;5.53;3.90;;;3.20;99.90;;;;;;5023012;28;20167;-73
2021/03/15 02:55:26;;;;;;;4.47;4.07;;;3.20;99.90;;;;;;5032014;28;20599;-73
2021/03/15 02:57:53;;;;;;;4.47;4.07;;;3.20;99.90;;;;;;5032069;28;20178;-73
2021/03/15 03:00:20;;;;;;;4.43;3.90;;;3.20;99.90;;;;;;5031900;28;20293;-73
2021/03/15 03:02:48;;;;;;;5.03;4.23;;;3.20;99.90;;;;;;5023463;28;20259;-73
2021/03/15 03:05:17;;;;;;;4.57;4.20;;;3.30;99.90;;;;;;5032566;28;20180;-73
2021/03/15 03:07:46;;;;;;;5.60;4.20;;;3.30;99.90;;;;;;5032716;28;20275;-73
2021/03/15 03:10:12;;;;;;;7.57;3.90;;;3.20;99.90;;;;;;5031909;28;20213;-73
2021/03/15 03:12:40;;;;;;;7.13;4.50;;;3.20;99.90;;;;;;5032263;28;20181;-73
2021/03/15 03:15:09;;;;;;;6.50;4.13;;;3.20;99.90;;;;;;5030714;28;20182;-73
2021/03/15 03:17:38;;;;;;;6.27;5.30;;;3.20;99.90;;;;;;5032310;28;20220;-73
2021/03/15 03:20:07;;;;;;;7.23;4.53;;;3.20;99.90;;;;;;5035592;28;20209;-73
2021/03/15 03:22:39;;;;;;;7.37;4.63;;;3.30;99.90;;;;;;5035815;28;20265;-73
2021/03/15 03:25:17;;;;;;;4.87;4.10;;;3.30;99.90;;;;;;5035694;28;20172;-73
2021/03/15 03:27:46;;;;;;;5.70;4.83;;;3.20;99.90;;;;;;5014701;28;20264;-73
2021/03/15 03:30:13;;;;;;;4.77;4.33;;;3.30;99.90;;;;;;5035118;28;20238;-73
2021/03/15 03:32:41;;;;;;;8.13;4.27;;;3.40;99.90;;;;;;5035483;28;20186;-73
2021/03/15 03:35:07;;;;;;;6.57;4.53;;;3.40;99.90;;;;;;5035522;28;20173;-73
2021/03/15 03:37:34;;;;;;;4.90;4.40;;;3.50;99.90;;;;;;5035563;28;20232;-73
2021/03/15 03:40:00;;;;;;;8.23;5.13;;;3.50;99.90;;;;;;5035440;28;20202;-73
2021/03/15 03:42:26;;;;;;;4.70;4.30;;;3.50;99.90;;;;;;5035396;28;20546;-73
2021/03/15 03:44:55;;;;;;;5.17;4.67;;;3.50;99.90;;;;;;5035283;28;20228;-73
2021/03/15 03:47:21;;;;;;;7.60;4.60;;;3.50;99.90;;;;;;5032599;28;20187;-73
2021/03/15 03:49:46;;;;;;;6.60;5.17;;;3.50;99.90;;;;;;5017295;28;20196;-73
2021/03/15 03:52:14;;;;;;;8.83;5.47;;;3.50;99.90;;;;;;5035138;28;20198;-73
2021/03/15 03:54:49;;;;;;;6.03;5.20;;;3.50;99.90;;;;;;5033928;28;20184;-73
2021/03/15 03:57:31;;;;;;;6.83;5.27;;;3.60;99.90;;;;;;5024048;28;20190;-73
2021/03/15 04:00:01;;;;;;;6.17;5.30;;;3.50;99.90;;;;;;5034374;28;20214;-73
2021/03/15 04:02:28;;;;;;;5.93;5.27;;;3.60;99.90;;;;;;5026291;28;20201;-73
2021/03/15 04:05:19;;;;;;;5.17;4.70;;;3.60;99.90;;;;;;5034989;28;20174;-73
2021/03/15 04:07:49;;;;;;;5.37;4.87;;;3.80;99.90;;;;;;5034838;28;20259;-73
2021/03/15 04:10:15;;;;;;;5.67;4.70;;;3.70;99.90;;;;;;5017261;28;20200;-73
2021/03/15 04:12:48;;;;;;;5.03;4.30;;;3.70;99.90;;;;;;5010760;28;20724;-72
2021/03/15 04:15:16;;;;;;;4.53;4.13;;;3.70;99.90;;;;;;5012502;28;20184;-73
2021/03/15 04:17:42;;;;;;;5.00;4.60;;;3.60;99.90;;;;;;5002859;28;20176;-73
2021/03/15 04:20:17;;;;;;;4.80;4.40;;;3.60;99.90;;;;;;5009257;28;20659;-73
2021/03/15 04:22:52;;;;;;;5.00;4.50;;;3.50;99.90;;;;;;5034100;28;20205;-73
2021/03/15 04:25:20;;;;;;;4.73;4.33;;;3.50;99.90;;;;;;5034546;28;20206;-72
2021/03/15 04:27:50;;;;;;;6.40;5.40;;;3.40;99.90;;;;;;5033026;28;20229;-71
2021/03/15 04:30:17;;;;;;;5.80;4.57;;;3.50;99.90;;;;;;5033424;28;20553;-72
2021/03/15 04:32:47;;;;;;;7.20;4.80;;;3.50;99.90;;;;;;5034404;28;20177;-72
2021/03/15 04:35:13;;;;;;;5.27;4.57;;;3.50;99.90;;;;;;5034398;28;20259;-72
2021/03/15 04:37:40;;;;;;;4.73;4.33;;;3.40;99.90;;;;;;5034334;28;20270;-72
2021/03/15 04:40:07;;;;;;;6.27;4.80;;;3.40;99.90;;;;;;5034037;28;20200;-72
2021/03/15 04:42:34;;;;;;;5.83;4.70;;;3.40;99.90;;;;;;5027324;28;20207;-72
2021/03/15 04:45:02;;;;;;;5.13;4.23;;;3.40;99.90;;;;;;5024701;28;20184;-72
2021/03/15 04:47:28;;;;;;;4.60;4.17;;;3.50;99.90;;;;;;5034384;28;20595;-72
2021/03/15 04:49:55;;;;;;;4.80;4.30;;;3.60;99.90;;;;;;5033944;28;20232;-72
2021/03/15 04:52:22;;;;;;;5.73;4.87;;;3.50;99.90;;;;;;5004386;28;20190;-72
2021/03/15 04:54:48;;;;;;;4.40;4.00;;;3.60;99.90;;;;;;5012265;28;20171;-72
2021/03/15 04:57:14;;;;;;;4.50;4.10;;;3.50;99.90;;;;;;5018024;28;20665;-73
2021/03/15 04:59:41;;;;;;;4.80;4.07;;;3.60;99.90;;;;;;5033739;28;20198;-73
2021/03/15 05:02:07;;;;;;;5.40;4.07;;;3.70;99.90;;;;;;5007177;28;20196;-73
2021/03/15 05:04:36;;;;;;;4.50;4.10;;;3.70;99.90;;;;;;5012922;28;20175;-73
2021/03/15 05:07:03;;;;;;;5.80;4.57;;;3.60;99.90;;;;;;5007298;28;20176;-73
2021/03/15 05:09:30;;;;;;;5.73;3.80;;;3.60;99.90;;;;;;5032061;28;20185;-71
2021/03/15 05:11:58;;;;;;;5.37;4.13;;;3.60;99.90;;;;;;5032222;28;20210;-72
2021/03/15 05:14:23;;;;;;;5.43;4.37;;;3.60;99.90;;;;;;5022747;28;20183;-73
2021/03/15 05:16:50;;;;;;;4.27;3.93;;;3.50;99.90;;;;;;5025712;28;20209;-73
2021/03/15 05:19:17;;;;;;;4.93;4.47;;;3.60;99.90;;;;;;5027064;28;20227;-72
2021/03/15 05:21:45;;;;;;;4.90;4.50;;;3.50;99.90;;;;;;5033447;28;20215;-72
2021/03/15 05:24:12;;;;;;;4.77;4.30;;;3.50;99.90;;;;;;5032264;28;20184;-72
2021/03/15 05:26:40;;;;;;;4.60;4.20;;;3.50;99.90;;;;;;5015293;28;20172;-72
2021/03/15 05:29:13;;;;;;;4.70;4.30;;;3.60;99.90;;;;;;5012077;28;20595;-72
2021/03/15 05:31:43;;;;;;;6.80;5.07;;;3.60;99.90;;;;;;5010842;28;20214;-72
2021/03/15 05:34:11;;;;;;;5.53;4.33;;;3.50;99.90;;;;;;5011140;28;20192;-74
2021/03/15 05:36:38;;;;;;;7.50;4.90;;;3.50;99.90;;;;;;5012686;28;20244;-73
2021/03/15 05:39:05;;;;;;;5.83;5.33;;;3.50;99.90;;;;;;5033171;22;20221;-76
2021/03/15 05:41:51;;;;;;;5.00;4.47;;;3.60;99.90;;;;;;4974813;28;20177;-76
2021/03/15 05:44:43;;;;;;;5.33;4.37;;;3.60;99.90;;;;;;4994485;28;20176;-76
2021/03/15 05:47:43;;;;;;;4.47;3.87;;;3.60;99.90;;;;;;4964970;28;20254;-76
2021/03/15 05:50:37;;;;;;;4.67;4.20;;;3.60;99.90;;;;;;4994325;28;20208;-76
2021/03/15 05:53:19;;;;;;;6.53;4.20;;;3.70;99.90;;;;;;4995251;28;20185;-76
2021/03/15 05:55:58;;;;;;;4.30;4.00;;;3.60;99.90;;;;;;4992743;28;20184;-76
2021/03/15 05:58:52;;;;;;;4.10;3.80;;;3.60;99.90;;;;;;4976641;28;20238;-76
2021/03/15 06:01:35;;;;;;;3.33;3.03;;;3.60;99.90;;;;;;4978912;28;20553;-76
2021/03/15 06:04:38;;;;;;;3.73;3.10;;;3.50;99.90;;;;;;4993954;28;20517;-75
2021/03/15 06:07:08;;;;;;;5.00;3.90;;;3.30;99.90;;;;;;4992339;28;20218;-75
2021/03/15 06:09:41;;;;;;;3.43;3.23;;;3.20;99.90;;;;;;4975794;28;20209;-75
2021/03/15 06:12:15;;;;;;;4.47;4.07;;;3.10;99.90;;;;;;4994275;28;20634;-75
2021/03/15 06:14:42;;;;;;;3.80;3.50;;;3.10;99.90;;;;;;4994127;28;20199;-75
2021/03/15 06:17:09;;;;;;;4.47;4.07;;;3.20;99.90;;;;;;4994008;28;20662;-76
2021/03/15 06:19:36;;;;;;;4.50;4.17;;;3.30;99.90;;;;;;4976399;28;20212;-75
2021/03/15 06:22:02;;;;;;;4.93;4.30;;;3.30;99.90;;;;;;4994291;28;20172;-75
2021/03/15 06:24:29;;;;;;;4.77;3.90;;;3.40;99.90;;;;;;4994198;28;20184;-75
2021/03/15 06:26:56;;;;;;;4.87;4.47;;;3.30;99.90;;;;;;4994329;28;20172;-75
2021/03/15 06:29:22;;;;;;;4.37;4.07;;;3.20;99.90;;;;;;4993829;28;20706;-75
2021/03/15 06:31:50;;;;;;;4.23;3.50;;;3.20;99.90;;;;;;4993903;28;20183;-75
2021/03/15 06:34:18;;;;;;;3.87;3.40;;;3.10;99.90;;;;;;4993792;28;20199;-76
2021/03/15 06:36:44;;;;;;;3.03;2.83;;;3.10;99.90;;;;;;4993940;28;20263;-75
2021/03/15 06:39:11;;;;;;;3.17;2.97;;;3.10;99.90;;;;;;4993562;28;20209;-75
2021/03/15 06:41:41;;;;;;;3.60;3.30;;;3.00;99.90;;;;;;4993829;28;20226;-75
2021/03/15 06:44:09;;;;;;;3.67;3.37;;;2.90;99.90;;;;;;4993946;28;20199;-75
2021/03/15 06:46:35;;;;;;;3.43;3.13;;;2.90;99.90;;;;;;4993740;28;20291;-75
2021/03/15 06:49:01;;;;;;;3.23;2.87;;;3.00;99.90;;;;;;4993857;28;20183;-75
2021/03/15 06:51:26;;;;;;;3.33;3.03;;;2.90;99.90;;;;;;4974574;28;20190;-75
2021/03/15 06:53:52;;;;;;;3.83;2.70;;;2.90;99.90;;;;;;4996294;28;20207;-75
2021/03/15 06:56:20;;;;;;;3.63;3.27;;;2.90;99.90;;;;;;4997846;28;20187;-75
2021/03/15 06:58:54;;;;;;;3.40;3.10;;;2.90;99.90;;;;;;4997462;28;20223;-75
2021/03/15 07:01:27;;;;;;;3.70;2.90;;;3.00;99.90;;;;;;4997773;28;20186;-75
2021/03/15 07:04:11;;;;;;;3.53;2.83;;;3.00;99.90;;;;;;4980153;28;20172;-75
2021/03/15 07:06:45;;;;;;;3.10;2.80;;;3.10;99.90;;;;;;4980352;28;20231;-75
2021/03/15 07:09:16;;;;;;;3.73;2.50;;;3.00;99.90;;;;;;4997563;28;20250;-75
2021/03/15 07:11:42;;;;;;;2.60;2.40;;;3.00;99.90;;;;;;4997592;28;20182;-76
2021/03/15 07:14:27;;;;;;;3.07;2.20;;;2.90;99.90;;;;;;4997530;28;20650;-75
2021/03/15 07:17:02;;;;;;;2.13;1.80;;;2.90;99.90;;;;;;4997587;28;20191;-76
2021/03/15 07:19:28;;;;;;;3.10;2.47;;;2.80;99.90;;;;;;4979574;28;20294;-76
2021/03/15 07:21:54;;;;;;;2.20;2.00;;;2.80;99.90;;;;;;4979843;28;20274;-75
2021/03/15 07:24:20;;;;;;;2.67;1.90;;;2.80;99.90;;;;;;4979844;28;20589;-75
2021/03/15 07:26:46;;;;;;;3.03;2.73;;;2.70;99.90;;;;;;4979763;28;20195;-76
2021/03/15 07:29:17;;;;;;;3.20;2.60;;;2.70;99.90;;;;;;4994580;28;20250;-75
2021/03/15 07:31:48;;;;;;;4.53;3.03;;;2.80;99.90;;;;;;4973734;28;20222;-76
2021/03/15 07:34:21;;;;;;;3.13;2.83;;;2.80;99.90;;;;;;4997319;28;20226;-75
2021/03/15 07:36:55;;;;;;;3.87;3.47;;;2.80;99.90;;;;;;4997046;28;20673;-75
2021/03/15 07:39:23;;;;;;;4.17;3.87;;;2.80;99.90;;;;;;4979368;28;20269;-76
2021/03/15 07:41:51;;;;;;;4.57;4.20;;;2.80;99.90;;;;;;4997146;28;20227;-76
2021/03/15 07:44:33;;;;;;;4.93;4.10;;;2.80;99.90;;;;;;4979437;28;20175;-75
2021/03/15 07:47:01;;;;;;;5.10;4.67;;;2.80;99.90;;;;;;4996663;28;20179;-76
2021/03/15 07:49:35;;;;;;;6.27;5.23;;;2.90;99.90;;;;;;4996539;28;20203;-76
2021/03/15 07:52:04;;;;;;;6.47;5.77;;;2.80;99.90;;;;;;4996731;28;20194;-75
2021/03/15 07:54:35;;;;;;;5.83;5.23;;;2.90;99.90;;;;;;4979260;28;20229;-75
2021/03/15 07:57:11;;;;;;;5.37;4.83;;;2.90;99.90;;;;;;4979248;28;20598;-76
2021/03/15 07:59:37;;;;;;;6.63;5.20;;;2.90;99.90;;;;;;4996465;28;20202;-75
2021/03/15 08:02:03;;;;;;;5.90;5.40;;;3.00;99.90;;;;;;4996762;28;20226;-76
2021/03/15 08:04:30;;;;;;;6.57;5.23;;;3.10;99.90;;;;;;4979278;28;20262;-75
2021/03/15 08:06:56;;;;;;;4.87;4.33;;;3.10;99.90;;;;;;4996425;28;20551;-75
2021/03/15 08:09:22;;;;;;;4.37;3.80;;;3.00;99.90;;;;;;4996347;28;20200;-75
2021/03/15 08:11:50;;;;;;;4.17;3.77;;;3.10;99.90;;;;;;4963114;28;20188;-76
2021/03/15 08:14:18;;;;;;;4.47;4.07;;;3.10;99.90;;;;;;4996319;28;20186;-76
2021/03/15 08:16:46;;;;;;;5.13;4.03;;;3.10;99.90;;;;;;4996300;28;20176;-75
2021/03/15 08:19:14;;;;;;;3.50;3.13;;;3.10;99.90;;;;;;4978697;28;20307;-75
2021/03/15 08:21:43;;;;;;;3.33;3.03;;;3.10;99.90;;;;;;4996123;28;20195;-75
2021/03/15 08:24:12;;;;;;;3.43;3.13;;;3.20;99.90;;;;;;4978698;28;20686;-76
2021/03/15 08:26:40;;;;;;;5.00;3.07;;;3.30;99.90;;;;;;4978675;28;20200;-75
2021/03/15 08:29:06;;;;;;;3.27;2.97;;;3.30;99.90;;;;;;4996285;28;20610;-75
2021/03/15 08:31:46;;;;;;;2.90;2.70;;;3.40;99.90;;;;;;4996144;28;20231;-75
2021/03/15 08:34:13;;;;;;;3.70;3.00;;;3.50;99.90;;;;;;4992677;28;20276;-75
2021/03/15 08:36:44;;;;;;;2.77;2.57;;;3.50;99.90;;;;;;4992928;28;20180;-75
2021/03/15 08:39:31;;;;;;;2.93;2.63;;;3.60;99.90;;;;;;4995750;28;20219;-75
2021/03/15 08:42:10;;;;;;;2.27;2.10;;;3.60;99.90;;;;;;4995183;28;20783;-76
2021/03/15 08:44:43;;;;;;;3.17;2.07;;;3.50;99.90;;;;;;4990135;28;20579;-74
2021/03/15 08:47:10;;;;;;;2.63;2.00;;;3.50;99.90;;;;;;4995696;28;20201;-74
2021/03/15 08:49:38;;;;;;;2.40;2.20;;;3.50;99.90;;;;;;4995643;28;20205;-74
2021/03/15 08:52:04;;;;;;;2.30;2.10;;;3.60;99.90;;;;;;4995717;28;20178;-74
2021/03/15 08:54:46;;;;;;;2.07;1.80;;;3.60;99.90;;;;;;4995815;28;20183;-74
2021/03/15 08:57:34;;;;;;;2.10;2.00;;;4.10;99.90;;;;;;4995611;28;20186;-74
2021/03/15 09:00:20;;;;;;;2.23;1.80;;;3.70;99.90;;;;;;4978004;28;20219;-75
2021/03/15 09:02:46;;;;;;;2.00;1.90;;;3.70;99.90;;;;;;4995553;28;20176;-75
2021/03/15 09:05:25;;;;;;;2.70;1.60;;;3.80;99.90;;;;;;4995364;28;20176;-74
2021/03/15 09:07:53;;;;;;;1.70;1.00;;;3.80;99.90;;;;;;4995501;28;20247;-74
2021/03/15 09:10:30;;;;;;;1.27;0.87;;;3.80;99.90;;;;;;4995479;28;20205;-74
2021/03/15 09:13:22;;;;;;;1.17;1.07;;;3.70;99.90;;;;;;4995649;28;20175;-74
2021/03/15 09:15:56;;;;;;;1.13;1.00;;;3.60;99.90;;;;;;4994664;28;20181;-74
2021/03/15 09:18:37;;;;;;;0.83;0.80;;;3.50;99.90;;;;;;4995178;28;20192;-74
2021/03/15 09:21:25;;;;;;;0.80;0.80;;;3.40;99.90;;;;;;4977626;28;20198;-74
2021/03/15 09:23:51;;;;;;;0.80;0.80;;;3.30;99.90;;;;;;4977513;28;20182;-74
2021/03/15 09:26:29;;;;;;;0.77;0.70;;;3.30;99.90;;;;;;4995010;28;20262;-74
2021/03/15 09:28:57;;;;;;;1.10;0.70;;;3.30;99.90;;;;;;4987146;28;20183;-74
2021/03/15 09:31:26;;;;;;;1.00;0.90;;;3.20;99.90;;;;;;4994994;28;20176;-75
2021/03/15 09:33:51;;;;;;;1.80;0.90;;;3.20;99.90;;;;;;4994721;28;20176;-74
2021/03/15 09:36:28;;;;;;;1.37;1.27;;;3.10;99.90;;;;;;4994554;28;20553;-74
2021/03/15 09:38:57;;;;;;;1.00;1.00;;;3.10;99.90;;;;;;4994651;28;20250;-74
2021/03/15 09:41:26;;;;;;;0.90;0.90;;;3.10;99.90;;;;;;4994719;28;20184;-74
2021/03/15 09:43:53;;;;;;;1.23;1.03;;;3.10;99.90;;;;;;4994792;28;20176;-74
2021/03/15 09:46:28;;;;;;;2.20;1.20;;;3.20;99.90;;;;;;4994726;28;20208;-74
2021/03/15 09:48:54;;;;;;;2.17;1.23;;;3.20;99.90;;;;;;4976984;28;20424;-74
2021/03/15 09:51:27;;;;;;;1.27;1.17;;;3.30;99.90;;;;;;4994688;28;20176;-74
2021/03/15 09:53:54;;;;;;;1.20;1.10;;;3.40;99.90;;;;;;4994489;28;20204;-74
2021/03/15 09:56:22;;;;;;;1.33;0.97;;;3.40;99.90;;;;;;4994884;28;20660;-74
2021/03/15 09:58:48;;;;;;;1.13;1.10;;;3.40;99.90;;;;;;4994112;28;20663;-74
2021/03/15 10:01:19;;;;;;;1.03;0.80;;;3.50;99.90;;;;;;4994410;28;20263;-74
2021/03/15 10:03:55;;;;;;;1.33;0.83;;;3.50;99.90;;;;;;4994633;28;20192;-74
2021/03/15 10:06:25;;;;;;;0.90;0.90;;;3.60;99.90;;;;;;4977658;28;20176;-74
2021/03/15 10:08:53;;;;;;;2.00;0.77;;;3.60;99.90;;;;;;4976813;28;20193;-74
2021/03/15 10:11:19;;;;;;;1.10;1.00;;;3.80;99.90;;;;;;4976921;28;20572;-74
2021/03/15 10:13:58;;;;;;;0.93;0.90;;;3.70;99.90;;;;;;4976802;28;20199;-74
2021/03/15 10:16:24;;;;;;;0.80;0.80;;;3.80;99.90;;;;;;4987478;28;20644;-72
2021/03/15 10:18:50;;;;;;;2.73;0.87;;;3.80;99.90;;;;;;4983984;28;20320;-72
2021/03/15 10:21:30;;;;;;;0.73;0.73;;;4.00;99.90;;;;;;4992009;28;20224;-72
2021/03/15 10:23:56;;;;;;;1.10;1.00;;;4.10;99.90;;;;;;4992371;28;20188;-71
2021/03/15 10:26:22;;;;;;;0.77;0.70;;;4.20;99.90;;;;;;4986522;28;20177;-72
2021/03/15 10:28:53;;;;;;;0.70;0.60;;;4.20;99.90;;;;;;4982098;28;20197;-71
2021/03/15 10:31:22;;;;;;;0.50;0.50;;;4.40;99.90;;;;;;4975181;28;20181;-72
2021/03/15 10:33:49;;;;;;;1.23;0.60;;;4.40;99.90;;;;;;4981197;28;20207;-72
2021/03/15 10:36:19;;;;;;;0.50;0.50;;;4.50;99.90;;;;;;4969957;28;20193;-70
2021/03/15 10:38:47;;;;;;;0.50;0.50;;;4.50;99.90;;;;;;4989829;28;20624;-71
2021/03/15 10:41:13;;;;;;;0.70;0.70;;;4.60;99.90;;;;;;4976398;28;20241;-72
2021/03/15 10:43:42;;;;;;;1.33;0.80;;;4.80;99.90;;;;;;4993877;28;20598;-71
2021/03/15 10:46:29;;;;;;;1.57;0.57;;;4.90;99.90;;;;;;4993848;28;20181;-71
2021/03/15 10:48:56;;;;;;;0.87;0.50;;;4.90;99.90;;;;;;4993796;28;20174;-71
2021/03/15 10:51:22;;;;;;;0.50;0.50;;;5.00;99.90;;;;;;4976360;28;20244;-71
2021/03/15 10:53:52;;;;;;;0.30;0.30;;;5.00;99.90;;;;;;4991905;28;20190;-72
2021/03/15 10:56:22;;;;;;;0.40;0.40;;;5.00;99.90;;;;;;4992775;28;20230;-72
2021/03/15 10:58:49;;;;;;;0.40;0.40;;;5.00;99.90;;;;;;4991384;28;20692;-71
2021/03/15 11:01:22;;;;;;;0.60;0.50;;;5.00;99.90;;;;;;4974578;28;20212;-71
2021/03/15 11:03:48;;;;;;;0.30;0.30;;;5.20;99.90;;;;;;4991095;28;20668;-71
2021/03/15 11:06:21;;;;;;;0.53;0.47;;;5.20;99.90;;;;;;4991181;28;20175;-72
2021/03/15 11:08:57;;;;;;;0.40;0.40;;;5.30;99.90;;;;;;4989073;28;20177;-71
2021/03/15 11:11:26;;;;;;;0.30;0.30;;;5.40;99.90;;;;;;4993621;28;20231;-71
2021/03/15 11:13:56;;;;;;;1.20;0.77;;;5.50;99.90;;;;;;4974254;28;20180;-71
2021/03/15 11:16:30;;;;;;;0.90;0.70;;;5.40;99.90;;;;;;4990893;28;20257;-70
2021/03/15 11:19:16;;;;;;;1.97;0.90;;;5.40;99.90;;;;;;4993395;28;20194;-71
2021/03/15 11:21:44;;;;;;;0.87;0.87;;;5.40;99.90;;;;;;4993619;28;20175;-70
2021/03/15 11:24:11;;;;;;;0.60;0.53;;;5.60;99.90;;;;;;4981374;28;20554;-71
2021/03/15 11:26:51;;;;;;;0.60;0.60;;;5.60;99.90;;;;;;4989739;28;20186;-71
2021/03/15 11:29:20;;;;;;;0.40;0.40;;;5.70;99.90;;;;;;4993303;28;20296;-72
2021/03/15 11:31:52;;;;;;;0.70;0.50;;;5.70;99.90;;;;;;4989783;28;20257;-72
2021/03/15 11:34:25;;;;;;;0.83;0.50;;;5.70;99.90;;;;;;4983520;28;20297;-73
2021/03/15 11:36:55;;;;;;;0.53;0.40;;;5.80;99.90;;;;;;4987341;28;20370;-71
2021/03/15 11:39:20;;;;;;;0.50;0.40;;;5.90;99.90;;;;;;4994499;28;20275;-71
2021/03/15 11:41:47;;;;;;;0.90;0.60;;;5.80;99.90;;;;;;5030663;23;20317;-72
2021/03/15 11:44:14;;;;;;;0.30;0.30;;;5.90;99.90;;;;;;5019994;28;20370;-73
2021/03/15 11:46:40;;;;;;;0.60;0.40;;;5.90;99.90;;;;;;5019187;28;20519;-73
2021/03/15 11:49:06;;;;;;;0.40;0.40;;;5.80;99.90;;;;;;5027859;28;20179;-73
2021/03/15 11:51:32;;;;;;;0.57;0.40;;;5.80;99.90;;;;;;5030350;28;20280;-73
2021/03/15 11:53:57;;;;;;;0.47;0.47;;;5.80;99.90;;;;;;5034793;28;20679;-73
2021/03/15 11:56:23;;;;;;;0.50;0.50;;;5.80;99.90;;;;;;5035944;28;20260;-73
2021/03/15 11:58:50;;;;;;;0.70;0.60;;;5.80;99.90;;;;;;5021825;28;20218;-72
2021/03/15 12:01:16;;;;;;;0.70;0.33;;;5.90;99.90;;;;;;4999174;28;20214;-73
2021/03/15 12:03:43;;;;;;;0.30;0.30;;;6.00;99.90;;;;;;5007445;28;20175;-72
2021/03/15 12:06:08;;;;;;;0.47;0.30;;;5.80;99.90;;;;;;5015740;28;20171;-72
2021/03/15 12:08:34;;;;;;;0.37;0.30;;;5.90;99.90;;;;;;5004940;28;20238;-73
2021/03/15 12:11:00;;;;;;;0.30;0.30;;;6.00;99.90;;;;;;5016099;28;20550;-73
2021/03/15 12:13:42;;;;;;;0.40;0.40;;;6.00;99.90;;;;;;5010601;28;20241;-74
2021/03/15 12:16:08;;;;;;;0.50;0.30;;;6.10;99.90;;;;;;5009816;28;20182;-72
2021/03/15 12:18:33;;;;;;;0.40;0.40;;;6.20;99.90;;;;;;5010871;28;20207;-72
2021/03/15 12:20:59;;;;;;;0.63;0.63;;;6.20;99.90;;;;;;5007232;28;20206;-72
2021/03/15 12:23:26;;;;;;;1.07;0.30;;;6.30;99.90;;;;;;5006686;28;20206;-72
2021/03/15 12:25:51;;;;;;;0.93;0.40;;;6.40;99.90;;;;;;5013822;28;20191;-72
2021/03/15 12:28:17;;;;;;;0.30;0.30;;;6.60;99.90;;;;;;5015432;28;20205;-73
2021/03/15 12:30:43;;;;;;;0.30;0.30;;;6.60;99.90;;;;;;5009663;28;20257;-72
2021/03/15 12:33:08;;;;;;;0.20;0.20;;;6.60;99.90;;;;;;5011902;28;20266;-73
2021/03/15 12:35:35;;;;;;;0.73;0.43;;;6.60;99.90;;;;;;5005334;28;20667;-72
2021/03/15 12:38:02;;;;;;;0.30;0.30;;;6.70;99.90;;;;;;5011385;28;20179;-73
2021/03/15 12:40:28;;;;;;;0.30;0.30;;;6.60;99.90;;;;;;5012308;28;20210;-72
2021/03/15 12:42:56;;;;;;;0.40;0.40;;;6.60;99.90;;;;;;5009846;28;20188;-73
2021/03/15 12:45:21;;;;;;;0.50;0.47;;;6.60;99.90;;;;;;5007340;28;20193;-72
2021/03/15 12:47:47;;;;;;;0.50;0.50;;;6.60;99.90;;;;;;5007238;28;20182;-72
2021/03/15 12:50:14;;;;;;;0.30;0.30;;;6.60;99.90;;;;;;5003353;28;20194;-72
2021/03/15 12:52:39;;;;;;;0.83;0.33;;;6.70;99.90;;;;;;5011800;28;20672;-72
2021/03/15 12:55:06;;;;;;;1.00;0.90;;;6.60;99.90;;;;;;5007670;28;20641;-72
2021/03/15 12:57:32;;;;;;;0.50;0.50;;;6.70;99.90;;;;;;5020691;28;20225;-73
2021/03/15 12:59:58;;;;;;;1.03;0.70;;;6.80;99.90;;;;;;5008451;28;20284;-72
2021/03/15 13:02:30;;;;;;;0.90;0.70;;;6.80;99.90;;;;;;5011367;28;20673;-72
2021/03/15 13:04:59;;;;;;;1.20;1.10;;;6.80;99.90;;;;;;5013152;28;20539;-72
2021/03/15 13:07:25;;;;;;;1.87;1.13;;;6.90;99.90;;;;;;5019524;28;20194;-74
2021/03/15 13:09:51;;;;;;;0.80;0.80;;;6.90;99.90;;;;;;5021586;28;20187;-73
2021/03/15 13:12:17;;;;;;;0.63;0.50;;;6.90;99.90;;;;;;5017392;28;20211;-73
2021/03/15 13:14:43;;;;;;;1.20;1.10;;;6.90;99.90;;;;;;5033477;28;20186;-72